createdAt,value
2022-08-30T00:01:00.880Z,95.20
2022-08-30T00:03:27.879Z,95.50
2022-08-30T00:06:00.484Z,95.50
2022-08-30T00:08:27.834Z,95.40
2022-08-30T00:10:54.554Z,95.60
2022-08-30T00:13:23.282Z,95.60
2022-08-30T00:15:50.664Z,95.60
2022-08-30T00:18:19.715Z,95.50
2022-08-30T00:20:48.021Z,95.50
2022-08-30T00:23:15.194Z,95.50
2022-08-30T00:25:42.278Z,95.20
2022-08-30T00:28:09.752Z,96.10
2022-08-30T00:30:37.011Z,95.50
2022-08-30T00:33:03.949Z,95.70
2022-08-30T00:35:31.082Z,95.60
2022-08-30T00:37:58.127Z,95.50
2022-08-30T00:40:27.767Z,96.00
2022-08-30T00:42:59.495Z,96.20
2022-08-30T00:45:32.947Z,96.10
2022-08-30T00:48:00.107Z,96.40
2022-08-30T00:50:34.270Z,96.10
2022-08-30T00:53:04.515Z,96.10
2022-08-30T00:55:33.189Z,95.90
2022-08-30T00:58:04.217Z,95.70
2022-08-30T01:00:32.241Z,95.60
2022-08-30T01:02:59.042Z,95.60
2022-08-30T01:05:25.968Z,95.70
2022-08-30T01:07:52.631Z,95.50
2022-08-30T01:10:19.915Z,95.90
2022-08-30T01:12:47.349Z,95.80
2022-08-30T01:15:15.060Z,95.80
2022-08-30T01:17:46.797Z,95.80
2022-08-30T01:20:17.723Z,96.00
2022-08-30T01:22:50.184Z,95.70
2022-08-30T01:25:24.656Z,95.60
2022-08-30T01:27:57.395Z,95.30
2022-08-30T01:30:24.496Z,95.90
2022-08-30T01:32:59.052Z,95.60
2022-08-30T01:35:26.672Z,95.80
2022-08-30T01:37:53.846Z,95.60
2022-08-30T01:40:20.829Z,95.90
2022-08-30T01:42:47.565Z,95.60
2022-08-30T01:45:14.320Z,95.60
2022-08-30T01:47:42.376Z,95.40
2022-08-30T01:50:10.735Z,95.20
2022-08-30T01:52:37.663Z,95.50
2022-08-30T01:55:05.880Z,95.50
2022-08-30T01:57:32.643Z,95.30
2022-08-30T01:59:59.301Z,95.40
2022-08-30T02:02:29.210Z,95.30
2022-08-30T02:04:57.054Z,95.40
2022-08-30T02:07:25.378Z,95.60
2022-08-30T02:09:52.780Z,96.00
2022-08-30T02:12:20.218Z,95.60
2022-08-30T02:14:47.106Z,95.70
2022-08-30T02:17:15.411Z,96.00
2022-08-30T02:19:42.909Z,95.80
2022-08-30T02:22:09.939Z,95.50
2022-08-30T02:24:36.761Z,95.60
2022-08-30T02:27:03.619Z,95.80
2022-08-30T02:29:30.462Z,95.40
2022-08-30T02:31:57.157Z,95.70
2022-08-30T02:34:23.828Z,96.10
2022-08-30T02:36:51.039Z,95.60
2022-08-30T02:39:17.831Z,95.70
2022-08-30T02:41:44.512Z,96.00
2022-08-30T02:44:11.704Z,96.10
2022-08-30T02:46:38.928Z,96.00
2022-08-30T02:49:32.216Z,95.90
2022-08-30T02:51:52.834Z,95.40
2022-08-30T02:54:22.251Z,95.90
2022-08-30T02:56:49.866Z,95.80
2022-08-30T02:59:17.994Z,95.60
2022-08-30T03:01:45.405Z,95.90
2022-08-30T03:04:12.299Z,95.90
2022-08-30T03:06:38.994Z,95.90
2022-08-30T03:09:05.690Z,95.60
2022-08-30T03:11:32.417Z,95.70
2022-08-30T03:13:59.446Z,95.80
2022-08-30T03:16:26.404Z,96.00
2022-08-30T03:18:53.156Z,96.10
2022-08-30T03:21:19.841Z,96.30
2022-08-30T03:23:46.656Z,96.50
2022-08-30T03:26:15.310Z,95.90
2022-08-30T03:28:43.064Z,96.30
2022-08-30T03:31:10.094Z,95.70
2022-08-30T03:33:37.716Z,96.00
2022-08-30T03:36:05.507Z,95.90
2022-08-30T03:38:32.523Z,96.00
2022-08-30T03:40:59.227Z,96.10
2022-08-30T03:43:26.575Z,96.50
2022-08-30T03:45:53.535Z,96.60
2022-08-30T03:48:20.245Z,96.50
2022-08-30T03:50:46.921Z,96.90
2022-08-30T03:53:13.588Z,97.10
2022-08-30T03:55:40.360Z,97.40
2022-08-30T03:58:06.994Z,97.70
2022-08-30T04:00:33.666Z,97.90
2022-08-30T04:03:00.405Z,97.90
2022-08-30T04:05:27.390Z,98.10
2022-08-30T04:07:54.221Z,97.80
2022-08-30T04:10:21.340Z,97.80
2022-08-30T04:12:49.795Z,97.70
2022-08-30T04:15:18.295Z,97.70
2022-08-30T04:17:45.379Z,98.10
2022-08-30T04:20:12.354Z,97.90
2022-08-30T04:22:39.018Z,97.90
2022-08-30T04:25:06.791Z,98.00
2022-08-30T04:27:33.552Z,98.20
2022-08-30T04:30:01.170Z,97.60
2022-08-30T04:32:27.794Z,98.20
2022-08-30T04:34:59.689Z,98.30
2022-08-30T04:37:27.348Z,98.20
2022-08-30T04:40:00.713Z,98.20
2022-08-30T04:42:30.025Z,98.10
2022-08-30T04:44:57.283Z,98.20
2022-08-30T04:47:24.202Z,98.40
2022-08-30T04:49:51.902Z,98.30
2022-08-30T04:52:19.165Z,98.40
2022-08-30T04:54:45.999Z,98.60
2022-08-30T04:57:12.674Z,98.40
2022-08-30T04:59:39.657Z,98.40
2022-08-30T05:02:06.403Z,98.30
2022-08-30T05:04:33.113Z,98.60
2022-08-30T05:06:59.756Z,98.50
2022-08-30T05:09:26.419Z,98.10
2022-08-30T05:11:53.419Z,98.20
2022-08-30T05:14:20.109Z,97.80
2022-08-30T05:16:46.868Z,97.70
2022-08-30T05:19:13.537Z,98.90
2022-08-30T05:21:40.708Z,98.40
2022-08-30T05:24:08.373Z,98.30
2022-08-30T05:26:37.664Z,98.30
2022-08-30T05:29:04.418Z,99.00
2022-08-30T05:31:35.242Z,98.90
2022-08-30T05:34:02.280Z,99.10
2022-08-30T05:36:31.009Z,98.20
2022-08-30T05:38:57.995Z,98.30
2022-08-30T05:41:26.663Z,98.30
2022-08-30T05:43:55.547Z,98.10
2022-08-30T05:46:22.387Z,98.00
2022-08-30T05:48:49.931Z,98.20
2022-08-30T05:51:20.118Z,98.30
2022-08-30T05:53:49.318Z,97.90
2022-08-30T05:56:18.627Z,97.70
2022-08-30T05:58:45.430Z,97.60
2022-08-30T06:01:27.302Z,97.90
2022-08-30T06:03:59.314Z,98.50
2022-08-30T06:06:29.868Z,98.00
2022-08-30T06:08:57.247Z,98.50
2022-08-30T06:11:25.646Z,98.00
2022-08-30T06:13:54.472Z,98.40
2022-08-30T06:16:24.904Z,98.10
2022-08-30T06:18:52.547Z,98.20
2022-08-30T06:21:20.736Z,98.00
2022-08-30T06:23:47.505Z,97.80
2022-08-30T06:26:14.626Z,97.80
2022-08-30T06:28:41.262Z,97.50
2022-08-30T06:31:09.693Z,97.60
2022-08-30T06:33:37.395Z,97.10
2022-08-30T06:36:06.253Z,97.60
2022-08-30T06:38:32.938Z,97.70
2022-08-30T06:40:59.630Z,97.40
2022-08-30T06:43:26.337Z,97.80
2022-08-30T06:45:53.101Z,97.90
2022-08-30T06:48:19.812Z,97.80
2022-08-30T06:50:52.530Z,97.70
2022-08-30T06:53:19.319Z,98.00
2022-08-30T06:56:02.491Z,98.30
2022-08-30T06:58:32.149Z,98.10
2022-08-30T07:00:58.931Z,98.40
2022-08-30T07:03:27.359Z,98.60
2022-08-30T07:05:55.337Z,98.80
2022-08-30T07:08:23.063Z,98.90
2022-08-30T07:10:50.530Z,98.50
2022-08-30T07:13:19.489Z,98.60
2022-08-30T07:15:46.811Z,98.50
2022-08-30T07:18:33.406Z,98.30
2022-08-30T07:21:08.081Z,98.40
2022-08-30T07:23:35.191Z,98.60
2022-08-30T07:26:07.156Z,98.90
2022-08-30T07:28:34.464Z,98.80
2022-08-30T07:31:01.957Z,99.00
2022-08-30T07:33:28.687Z,99.10
2022-08-30T07:35:55.361Z,99.10
2022-08-30T07:38:22.023Z,99.00
2022-08-30T07:40:48.761Z,99.20
2022-08-30T07:43:15.615Z,99.30
2022-08-30T07:45:42.467Z,99.10
2022-08-30T07:48:11.507Z,99.10
2022-08-30T07:50:42.844Z,98.80
2022-08-30T07:53:11.281Z,99.10
2022-08-30T07:55:38.403Z,99.10
2022-08-30T07:58:05.153Z,99.20
2022-08-30T08:00:31.912Z,99.10
2022-08-30T08:02:58.637Z,99.30
2022-08-30T08:05:25.469Z,99.50
2022-08-30T08:07:52.167Z,99.30
2022-08-30T08:10:18.945Z,99.40
2022-08-30T08:12:45.662Z,99.40
2022-08-30T08:15:12.510Z,99.10
2022-08-30T08:17:39.172Z,99.10
2022-08-30T08:20:06.387Z,99.00
2022-08-30T08:22:35.800Z,99.00
2022-08-30T08:25:06.218Z,98.60
2022-08-30T08:27:32.822Z,98.60
2022-08-30T08:29:59.497Z,98.40
2022-08-30T08:32:26.249Z,98.70
2022-08-30T08:34:53.003Z,98.30
2022-08-30T08:37:21.231Z,98.10
2022-08-30T08:39:53.672Z,98.20
2022-08-30T08:42:48.663Z,97.80
2022-08-30T08:45:24.519Z,97.60
2022-08-30T08:48:51.757Z,97.60
2022-08-30T08:51:41.510Z,97.30
2022-08-30T08:54:29.912Z,97.20
2022-08-30T08:56:56.635Z,97.10
2022-08-30T08:59:23.509Z,96.90
2022-08-30T09:01:50.866Z,97.10
2022-08-30T09:04:23.240Z,96.80
2022-08-30T09:07:04.928Z,96.70
2022-08-30T09:09:34.868Z,97.20
2022-08-30T09:12:01.940Z,97.30
2022-08-30T09:14:34.310Z,97.20
2022-08-30T09:17:09.374Z,97.30
2022-08-30T09:20:00.054Z,97.60
2022-08-30T09:22:43.619Z,97.30
2022-08-30T09:25:13.406Z,96.80
2022-08-30T09:27:42.902Z,96.70
2022-08-30T09:30:24.649Z,96.80
2022-08-30T09:32:56.873Z,96.60
2022-08-30T09:35:26.368Z,96.60
2022-08-30T09:38:03.331Z,96.20
2022-08-30T09:40:36.193Z,96.10
2022-08-30T09:43:27.818Z,95.90
2022-08-30T09:46:01.315Z,95.80
2022-08-30T09:48:40.690Z,95.70
2022-08-30T09:51:17.902Z,95.80
2022-08-30T09:54:20.010Z,96.20
2022-08-30T09:57:12.930Z,95.70
2022-08-30T09:59:52.072Z,95.70
2022-08-30T10:02:38.377Z,95.70
2022-08-30T10:05:13.832Z,95.30
2022-08-30T10:08:03.854Z,95.20
2022-08-30T10:10:45.268Z,95.80
2022-08-30T10:13:49.047Z,95.10
2022-08-30T10:16:22.795Z,94.90
2022-08-30T10:19:11.005Z,95.00
2022-08-30T10:22:01.269Z,94.80
2022-08-30T10:24:46.529Z,94.70
2022-08-30T10:27:20.450Z,94.70
2022-08-30T10:29:51.286Z,94.30
2022-08-30T10:32:25.255Z,94.30
2022-08-30T10:34:57.799Z,93.90
2022-08-30T10:37:31.131Z,94.10
2022-08-30T10:40:23.812Z,92.60
2022-08-30T10:42:54.089Z,92.50
2022-08-30T10:45:22.090Z,92.20
2022-08-30T10:48:22.044Z,91.10
2022-08-30T10:50:53.559Z,90.80
2022-08-30T10:53:30.111Z,90.10
2022-08-30T10:56:06.280Z,90.10
2022-08-30T10:58:33.280Z,89.70
2022-08-30T11:01:29.836Z,90.30
2022-08-30T11:04:17.475Z,89.80
2022-08-30T11:07:10.166Z,90.50
2022-08-30T11:09:51.410Z,91.10
2022-08-30T11:12:41.683Z,91.60
2022-08-30T11:15:37.741Z,91.80
2022-08-30T11:18:10.601Z,92.00
2022-08-30T11:20:47.153Z,92.00
2022-08-30T11:23:27.560Z,92.30
2022-08-30T11:26:04.479Z,92.50
2022-08-30T11:28:37.357Z,92.70
2022-08-30T11:31:11.301Z,92.50
2022-08-30T11:33:50.577Z,92.20
2022-08-30T11:36:37.443Z,92.60
2022-08-30T11:39:46.616Z,92.00
2022-08-30T11:42:32.549Z,92.20
2022-08-30T11:45:25.215Z,91.70
2022-08-30T11:47:59.534Z,91.60
2022-08-30T11:50:35.776Z,91.50
2022-08-30T11:53:09.390Z,91.70
2022-08-30T11:55:48.056Z,91.70
2022-08-30T11:58:43.906Z,91.20
2022-08-30T12:01:50.292Z,91.10
2022-08-30T12:04:24.465Z,91.50
2022-08-30T12:07:04.360Z,91.60
2022-08-30T12:09:32.959Z,91.20
2022-08-30T12:12:37.507Z,91.00
2022-08-30T12:15:04.767Z,90.90
2022-08-30T12:18:16.073Z,91.10
2022-08-30T12:20:48.280Z,90.90
2022-08-30T12:23:48.298Z,91.20
2022-08-30T12:26:25.051Z,91.00
2022-08-30T12:29:09.729Z,90.70
2022-08-30T12:31:47.822Z,90.40
2022-08-30T12:34:41.017Z,89.70
2022-08-30T12:37:23.337Z,89.00
2022-08-30T12:40:11.683Z,89.40
2022-08-30T12:42:43.147Z,88.00
2022-08-30T12:45:15.338Z,88.00
2022-08-30T12:47:58.264Z,87.50
2022-08-30T12:50:38.113Z,87.90
2022-08-30T12:53:13.754Z,88.90
2022-08-30T12:55:53.795Z,88.70
2022-08-30T12:58:45.837Z,89.00
2022-08-30T13:01:32.354Z,89.60
2022-08-30T13:04:19.826Z,89.30
2022-08-30T13:06:57.889Z,88.80
2022-08-30T13:09:33.840Z,89.30
2022-08-30T13:12:02.532Z,88.60
2022-08-30T13:14:34.398Z,88.10
2022-08-30T13:17:19.548Z,88.10
2022-08-30T13:19:55.976Z,89.00
2022-08-30T13:22:27.298Z,89.00
2022-08-30T13:24:54.227Z,88.70
2022-08-30T13:27:21.146Z,89.00
2022-08-30T13:29:48.776Z,89.10
2022-08-30T13:32:16.145Z,89.00
2022-08-30T13:34:43.647Z,88.40
2022-08-30T13:40:09.285Z,88.00
2022-08-30T13:42:36.023Z,87.80
2022-08-30T13:45:03.017Z,88.20
2022-08-30T13:47:32.678Z,87.70
2022-08-30T13:49:59.907Z,86.80
2022-08-30T13:52:27.751Z,86.30
2022-08-30T13:54:56.470Z,85.90
2022-08-30T14:00:19.108Z,85.50
2022-08-30T14:02:54.186Z,84.70
2022-08-30T14:05:48.363Z,83.60
2022-08-30T14:11:07.098Z,83.40
2022-08-30T14:13:34.009Z,83.00
2022-08-30T14:18:51.049Z,82.20
2022-08-30T14:21:17.998Z,81.20
2022-08-30T14:23:50.941Z,80.40
2022-08-30T14:26:45.257Z,80.80
2022-08-30T14:29:15.442Z,81.90
2022-08-30T14:31:43.400Z,82.40
2022-08-30T14:34:11.888Z,81.20
2022-08-30T14:36:41.158Z,80.40
2022-08-30T14:39:11.842Z,80.00
2022-08-30T14:41:47.925Z,80.70
2022-08-30T14:44:16.391Z,80.60
2022-08-30T14:46:44.064Z,79.50
2022-08-30T14:49:12.148Z,80.00
2022-08-30T14:51:39.723Z,79.00
2022-08-30T14:54:06.428Z,78.60
2022-08-30T14:56:33.605Z,80.10
2022-08-30T14:59:02.894Z,80.90
2022-08-30T15:01:30.774Z,81.60
2022-08-30T15:03:58.663Z,82.20
2022-08-30T15:06:26.456Z,82.90
2022-08-30T15:08:54.183Z,82.90
2022-08-30T15:11:22.923Z,83.10
2022-08-30T15:13:52.890Z,82.80
2022-08-30T15:16:26.361Z,83.00
2022-08-30T15:18:53.726Z,83.10
2022-08-30T15:21:48.420Z,83.60
2022-08-30T15:24:29.466Z,82.40
2022-08-30T15:26:57.865Z,82.10
2022-08-30T15:29:26.497Z,82.90
2022-08-30T15:31:53.459Z,81.90
2022-08-30T15:34:22.125Z,82.60
2022-08-30T15:36:54.905Z,83.50
2022-08-30T15:39:21.682Z,82.90
2022-08-30T15:41:54.605Z,82.50
2022-08-30T15:44:23.950Z,83.10
2022-08-30T15:46:50.718Z,82.50
2022-08-30T15:49:20.721Z,82.60
2022-08-30T15:51:51.575Z,82.50
2022-08-30T15:54:22.125Z,82.00
2022-08-30T15:56:48.786Z,81.00
2022-08-30T15:59:15.802Z,76.80
2022-08-30T16:01:43.609Z,73.80
2022-08-30T16:04:10.819Z,73.60
2022-08-30T16:06:38.551Z,75.60
2022-08-30T16:09:06.986Z,77.80
2022-08-30T16:11:34.724Z,79.80
2022-08-30T16:14:02.804Z,80.10
2022-08-30T16:16:31.109Z,78.60
2022-08-30T16:18:57.985Z,74.50
2022-08-30T16:21:28.285Z,72.50
2022-08-30T16:23:58.055Z,74.70
2022-08-30T16:26:25.908Z,75.90
2022-08-30T16:28:53.203Z,77.20
2022-08-30T16:31:21.344Z,76.50
2022-08-30T16:33:52.716Z,76.20
2022-08-30T16:36:20.551Z,76.30
2022-08-30T16:38:48.244Z,77.80
2022-08-30T16:41:21.324Z,75.60
2022-08-30T16:43:49.570Z,76.70
2022-08-30T16:46:22.928Z,74.60
2022-08-30T16:48:50.299Z,74.60
2022-08-30T16:51:19.839Z,74.20
2022-08-30T16:53:47.459Z,74.50
2022-08-30T16:56:18.044Z,74.00
2022-08-30T16:58:45.874Z,74.40
2022-08-30T17:01:13.372Z,74.60
2022-08-30T17:03:41.076Z,74.60
2022-08-30T17:06:17.331Z,75.70
2022-08-30T17:08:47.553Z,75.00
2022-08-30T17:11:14.975Z,73.70
2022-08-30T17:13:42.735Z,73.60
2022-08-30T17:16:11.465Z,73.20
2022-08-30T17:18:38.455Z,74.20
2022-08-30T17:21:05.700Z,75.70
2022-08-30T17:23:34.436Z,74.40
2022-08-30T17:26:01.338Z,73.70
2022-08-30T17:28:29.468Z,72.80
2022-08-30T17:30:56.313Z,76.50
2022-08-30T17:33:23.177Z,73.80
2022-08-30T17:35:50.288Z,74.20
2022-08-30T17:38:17.230Z,73.80
2022-08-30T17:40:44.227Z,75.60
2022-08-30T17:43:11.076Z,74.60
2022-08-30T17:45:37.894Z,75.10
2022-08-30T17:48:06.934Z,75.30
2022-08-30T17:50:35.175Z,75.70
2022-08-30T17:53:02.974Z,75.50
2022-08-30T17:55:30.673Z,76.30
2022-08-30T17:57:57.602Z,75.60
2022-08-30T18:00:27.361Z,76.30
2022-08-30T18:02:54.197Z,76.10
2022-08-30T18:05:24.676Z,75.90
2022-08-30T18:07:52.161Z,76.50
2022-08-30T18:10:18.941Z,76.30
2022-08-30T18:12:46.079Z,76.40
2022-08-30T18:15:15.649Z,77.50
2022-08-30T18:17:44.310Z,78.00
2022-08-30T18:20:11.378Z,77.10
2022-08-30T18:22:38.073Z,76.70
2022-08-30T18:25:06.084Z,76.70
2022-08-30T18:27:32.817Z,77.50
2022-08-30T18:30:07.991Z,76.10
2022-08-30T18:32:38.703Z,76.60
2022-08-30T18:35:06.468Z,76.60
2022-08-30T18:37:33.464Z,76.60
2022-08-30T18:40:00.942Z,77.20
2022-08-30T18:42:27.782Z,78.70
2022-08-30T18:44:54.430Z,77.20
2022-08-30T18:47:23.003Z,77.40
2022-08-30T18:49:50.530Z,79.00
2022-08-30T18:52:17.292Z,77.90
2022-08-30T18:57:33.571Z,80.00
2022-08-30T19:00:00.293Z,78.20
2022-08-30T19:02:27.683Z,78.50
2022-08-30T19:04:54.726Z,78.30
2022-08-30T19:07:21.527Z,78.50
2022-08-30T19:09:54.199Z,78.40
2022-08-30T19:12:21.060Z,78.40
2022-08-30T19:14:47.756Z,78.30
2022-08-30T19:17:14.485Z,78.70
2022-08-30T19:19:46.500Z,78.40
2022-08-30T19:22:16.281Z,78.60
2022-08-30T19:24:43.460Z,79.40
2022-08-30T19:27:10.291Z,79.50
2022-08-30T19:29:37.002Z,80.20
2022-08-30T19:32:04.126Z,80.40
2022-08-30T19:34:30.799Z,81.20
2022-08-30T19:36:57.759Z,81.90
2022-08-30T19:39:24.474Z,82.20
2022-08-30T19:41:51.372Z,83.60
2022-08-30T19:44:18.071Z,84.40
2022-08-30T19:46:44.739Z,84.30
2022-08-30T19:49:11.749Z,84.20
2022-08-30T19:51:45.974Z,84.90
2022-08-30T19:54:13.918Z,85.60
2022-08-30T19:56:40.552Z,85.60
2022-08-30T19:59:07.317Z,86.60
2022-08-30T20:01:34.507Z,87.60
2022-08-30T20:04:02.462Z,87.90
2022-08-30T20:06:30.345Z,87.90
2022-08-30T20:08:59.820Z,87.50
2022-08-30T20:11:27.675Z,88.20
2022-08-30T20:13:54.414Z,88.30
2022-08-30T20:16:21.162Z,89.10
2022-08-30T20:19:04.161Z,89.50
2022-08-30T20:21:33.224Z,88.70
2022-08-30T20:24:00.817Z,89.00
2022-08-30T20:24:29.770Z,78.80
2022-08-30T20:26:34.236Z,89.40
2022-08-30T20:29:02.674Z,89.70
2022-08-30T20:31:29.959Z,89.20
2022-08-30T20:33:56.770Z,88.90
2022-08-30T20:36:23.518Z,89.60
2022-08-30T20:38:50.227Z,90.20
2022-08-30T20:41:18.995Z,90.00
2022-08-30T20:43:46.711Z,89.60
2022-08-30T20:46:16.181Z,89.50
2022-08-30T20:48:43.627Z,89.40
2022-08-30T20:51:12.704Z,89.60
2022-08-30T20:53:39.363Z,89.90
2022-08-30T20:56:15.526Z,90.50
2022-08-30T20:58:42.773Z,89.80
2022-08-30T21:01:11.365Z,90.50
2022-08-30T21:03:42.249Z,89.90
2022-08-30T21:06:09.058Z,90.20
2022-08-30T21:08:35.774Z,90.40
2022-08-30T21:11:02.439Z,90.90
2022-08-30T21:13:29.187Z,90.20
2022-08-30T21:16:00.384Z,91.30
2022-08-30T21:18:32.764Z,90.60
2022-08-30T21:21:07.329Z,90.80
2022-08-30T21:23:35.576Z,90.70
2022-08-30T21:26:05.085Z,91.70
2022-08-30T21:28:31.832Z,91.40
2022-08-30T21:31:10.473Z,91.30
2022-08-30T21:33:37.592Z,91.30
2022-08-30T21:36:24.602Z,91.60
2022-08-30T21:38:52.690Z,91.20
2022-08-30T21:41:21.214Z,91.60
2022-08-30T21:43:48.841Z,91.50
2022-08-30T21:46:16.424Z,91.80
2022-08-30T21:48:43.149Z,91.60
2022-08-30T21:51:12.220Z,91.70
2022-08-30T21:53:39.079Z,91.70
2022-08-30T21:56:09.699Z,91.60
2022-08-30T21:58:40.249Z,91.70
2022-08-30T22:01:12.077Z,91.50
2022-08-30T22:03:39.400Z,91.60
2022-08-30T22:06:06.468Z,91.50
2022-08-30T22:08:33.433Z,91.50
2022-08-30T22:11:00.191Z,91.40
2022-08-30T22:13:27.044Z,91.80
2022-08-30T22:15:54.904Z,91.40
2022-08-30T22:18:21.678Z,91.50
2022-08-30T22:20:48.454Z,91.50
2022-08-30T22:23:18.883Z,91.70
2022-08-30T22:25:46.213Z,91.60
2022-08-30T22:28:15.067Z,91.60
2022-08-30T22:30:41.998Z,91.70
2022-08-30T22:33:08.656Z,91.80
2022-08-30T22:35:38.280Z,91.80
2022-08-30T22:38:05.180Z,91.90
2022-08-30T22:40:32.497Z,92.00
2022-08-30T22:43:00.190Z,92.00
2022-08-30T22:45:28.464Z,92.20
2022-08-30T22:47:55.873Z,92.20
2022-08-30T22:50:22.582Z,92.20
2022-08-30T22:52:49.635Z,92.30
2022-08-30T22:55:16.568Z,92.20
2022-08-30T22:57:43.249Z,92.00
2022-08-30T23:00:17.647Z,92.60
2022-08-30T23:02:49.315Z,92.60
2022-08-30T23:05:16.987Z,92.70
2022-08-30T23:07:43.943Z,92.70
2022-08-30T23:10:11.888Z,92.70
2022-08-30T23:12:39.444Z,92.80
2022-08-30T23:15:08.842Z,92.80
2022-08-30T23:17:39.625Z,92.80
2022-08-30T23:20:07.758Z,92.80
2022-08-30T23:22:34.459Z,92.80
2022-08-30T23:25:19.828Z,93.70
2022-08-30T23:28:05.582Z,93.70
2022-08-30T23:30:51.058Z,93.30
2022-08-30T23:33:36.533Z,93.00
2022-08-30T23:36:30.425Z,92.90
2022-08-30T23:39:16.584Z,93.00
2022-08-30T23:42:01.858Z,93.00
2022-08-30T23:44:47.104Z,93.20
2022-08-30T23:47:32.436Z,93.50
2022-08-30T23:50:17.737Z,93.70
2022-08-30T23:53:03.084Z,93.80
2022-08-30T23:55:48.177Z,93.70
2022-08-30T23:58:33.262Z,93.70
